Huvudsida
METAR-TAF:

METAR-TAF

Flygplatser :

Bergens flygplats. Flesland

Bergen, Norge

latitud: 60-17N, longitud: 005-14E, höjd: 5 m

Aktuellt väderrapport

Denna rapport gjordes för 42 minuter sedan, klockan 09:50 UTC
Vind 4 kt från sydost
Temperatur 3°C
Fuktighet 56%
Tryck 1016 hPa
Sikt 10 km eller mer
Få moln på en höjd av 4000 ft
Brutna moln på en höjd av 6000 ft

METAR: ENBR 170950Z 13004KT 9999 FEW040 BKN060 03/M05 Q1016 NOSIG RMK WIND 1200FT 15013KT

Tid: 11:32 (10:32 UTC)

Väderprognos

Prognos gäller från 17 kl. 06 UTC till 18 kl. 06 UTC
Vind 8 kt från syd/sydost
Sikt 10 km eller mer
Få moln på en höjd av 3000 ft
Brutna moln på en höjd av 5000 ft

TAF: ENBR 1706/1806 15008KT 9999 FEW030 BKN050

Aktuella väderrapporter och prognoser från 4000 flygplatser (METAR- och TAF-rapporter).

De tillgängliga stationerna syns som gula och röda prickar på kartan.

För musen över prickarna för att se namnen på stationerna.

Klicka sedan för att få väderrapporter och prognoser.

För att ändra kartan: Klicka på de gröna knapparna med ett svart kors på för att zooma in; den gröna knappen med ett streck på för att zooma ut; eller på de gröna pilarna för angränsande kartor.


METAR-TAF: